createdAt,value
2023-05-06T00:00:00.202Z, 10.4
2023-05-06T00:02:00.135Z, 10.4
2023-05-06T00:04:00.277Z, 10.4
2023-05-06T00:06:00.132Z, 10.4
2023-05-06T00:08:00.113Z, 10.5
2023-05-06T00:10:00.115Z, 10.5
2023-05-06T00:12:00.112Z, 10.6
2023-05-06T00:14:00.160Z, 10.4
2023-05-06T00:16:00.170Z, 10.4
2023-05-06T00:18:00.242Z, 10.3
2023-05-06T00:20:00.160Z, 10.2
2023-05-06T00:22:00.067Z, 10.3
2023-05-06T00:24:00.050Z, 10.2
2023-05-06T00:26:00.045Z, 10.2
2023-05-06T00:28:00.040Z, 9.9
2023-05-06T00:30:00.064Z, 9.9
2023-05-06T00:32:00.137Z, 9.9
2023-05-06T00:34:00.059Z, 9.9
2023-05-06T00:36:00.048Z, 9.9
2023-05-06T00:38:00.043Z, 10
2023-05-06T00:40:00.062Z, 9.9
2023-05-06T00:42:00.044Z, 9.9
2023-05-06T00:44:00.040Z, 9.9
2023-05-06T00:46:00.072Z, 9.8
2023-05-06T00:48:00.184Z, 9.9
2023-05-06T00:50:00.045Z, 9.9
2023-05-06T00:52:00.119Z, 9.8
2023-05-06T00:54:00.154Z, 9.7
2023-05-06T00:56:00.108Z, 9.7
2023-05-06T00:58:00.098Z, 9.7
2023-05-06T01:00:00.174Z, 9.8
2023-05-06T01:02:00.134Z, 9.7
2023-05-06T01:04:00.223Z, 9.6
2023-05-06T01:06:00.178Z, 9.6
2023-05-06T01:08:00.124Z, 9.7
2023-05-06T01:10:00.175Z, 9.9
2023-05-06T01:12:00.158Z, 10
2023-05-06T01:14:00.129Z, 9.9
2023-05-06T01:16:00.125Z, 9.8
2023-05-06T01:18:00.207Z, 9.7
2023-05-06T01:20:00.229Z, 9.7
2023-05-06T01:22:00.093Z, 9.6
2023-05-06T01:24:00.059Z, 9.5
2023-05-06T01:26:00.062Z, 9.6
2023-05-06T01:28:00.041Z, 9.6
2023-05-06T01:30:00.083Z, 9.6
2023-05-06T01:32:00.050Z, 9.9
2023-05-06T01:34:00.069Z, 9.9
2023-05-06T01:36:00.093Z, 9.9
2023-05-06T01:38:00.049Z, 10.1
2023-05-06T01:40:00.055Z, 10.1
2023-05-06T01:42:00.104Z, 9.8
2023-05-06T01:44:00.054Z, 9.7
2023-05-06T01:46:00.082Z, 9.5
2023-05-06T01:48:00.081Z, 9.5
2023-05-06T01:50:00.081Z, 9.3
2023-05-06T01:52:00.118Z, 9.4
2023-05-06T01:54:00.136Z, 9.4
2023-05-06T01:56:00.133Z, 9.1
2023-05-06T01:58:00.178Z, 9.1
2023-05-06T02:00:00.142Z, 9
2023-05-06T02:02:00.156Z, 8.9
2023-05-06T02:04:00.311Z, 8.8
2023-05-06T02:06:00.152Z, 8.8
2023-05-06T02:08:00.133Z, 8.8
2023-05-06T02:10:00.194Z, 8.9
2023-05-06T02:12:00.230Z, 8.8
2023-05-06T02:14:00.125Z, 8.8
2023-05-06T02:16:00.159Z, 8.8
2023-05-06T02:18:00.260Z, 8.8
2023-05-06T02:20:00.166Z, 8.1
2023-05-06T02:22:00.070Z, 8.2
2023-05-06T02:24:00.064Z, 8.4
2023-05-06T02:26:00.059Z, 8.6
2023-05-06T02:28:00.036Z, 8.8
2023-05-06T02:30:00.067Z, 8.7
2023-05-06T02:32:00.136Z, 8.6
2023-05-06T02:34:00.064Z, 8.5
2023-05-06T02:36:00.091Z, 8.5
2023-05-06T02:38:00.056Z, 8.4
2023-05-06T02:40:00.050Z, 8.3
2023-05-06T02:42:00.049Z, 8.5
2023-05-06T02:44:00.045Z, 8.5
2023-05-06T02:46:00.087Z, 8.4
2023-05-06T02:48:00.154Z, 8.3
2023-05-06T02:50:00.045Z, 8.4
2023-05-06T02:52:00.100Z, 8.4
2023-05-06T02:54:00.142Z, 8.3
2023-05-06T02:56:00.152Z, 8.2
2023-05-06T02:58:00.129Z, 8
2023-05-06T03:00:00.171Z, 7.8
2023-05-06T03:02:00.122Z, 7.9
2023-05-06T03:04:00.173Z, 7.9
2023-05-06T03:06:00.137Z, 7.9
2023-05-06T03:08:00.145Z, 7.9
2023-05-06T03:10:00.148Z, 8
2023-05-06T03:12:00.135Z, 8.1
2023-05-06T03:14:00.143Z, 8
2023-05-06T03:16:00.108Z, 8
2023-05-06T03:18:00.290Z, 8
2023-05-06T03:20:00.155Z, 8.1
2023-05-06T03:22:00.116Z, 8.4
2023-05-06T03:24:00.095Z, 8.7
2023-05-06T03:26:00.044Z, 8.7
2023-05-06T03:28:00.018Z, 8.8
2023-05-06T03:30:00.072Z, 8.7
2023-05-06T03:32:00.055Z, 8.7
2023-05-06T03:34:00.036Z, 8.6
2023-05-06T03:36:00.046Z, 8.5
2023-05-06T03:38:00.063Z, 8.4
2023-05-06T03:40:00.054Z, 8.3
2023-05-06T03:42:00.061Z, 8.1
2023-05-06T03:44:00.083Z, 7.6
2023-05-06T03:46:00.076Z, 7.4
2023-05-06T03:48:00.153Z, 7.6
2023-05-06T03:50:00.049Z, 7.7
2023-05-06T03:52:00.157Z, 7.8
2023-05-06T03:54:00.128Z, 7.7
2023-05-06T03:56:00.114Z, 7.8
2023-05-06T03:58:00.142Z, 8.1
2023-05-06T04:00:00.229Z, 8.3
2023-05-06T04:02:00.153Z, 8.3
2023-05-06T04:04:00.165Z, 8.3
2023-05-06T04:06:00.170Z, 8.3
2023-05-06T04:08:00.154Z, 7.9
2023-05-06T04:10:00.143Z, 7.2
2023-05-06T04:12:00.146Z, 7.6
2023-05-06T04:14:00.150Z, 7.7
2023-05-06T04:16:00.154Z, 7.7
2023-05-06T04:18:00.162Z, 7.7
2023-05-06T04:20:00.120Z, 7.9
2023-05-06T04:22:00.095Z, 8
2023-05-06T04:24:00.083Z, 8.1
2023-05-06T04:26:00.067Z, 8.1
2023-05-06T04:28:00.078Z, 8.1
2023-05-06T04:30:00.179Z, 8.1
2023-05-06T04:32:00.259Z, 8.2
2023-05-06T04:34:00.087Z, 8.4
2023-05-06T04:36:00.085Z, 8.5
2023-05-06T04:38:00.072Z, 8.8
2023-05-06T04:40:00.096Z, 9
2023-05-06T04:42:00.061Z, 8.9
2023-05-06T04:44:00.052Z, 8.9
2023-05-06T04:46:00.132Z, 8.8
2023-05-06T04:48:00.121Z, 9.2
2023-05-06T04:50:00.068Z, 9.1
2023-05-06T04:52:00.153Z, 9
2023-05-06T04:54:00.157Z, 9.1
2023-05-06T04:56:00.114Z, 9.2
2023-05-06T04:58:00.139Z, 9.2
2023-05-06T05:00:00.189Z, 9.2
2023-05-06T05:02:00.227Z, 8.9
2023-05-06T05:04:00.120Z, 8.8
2023-05-06T05:06:00.123Z, 8.5
2023-05-06T05:08:00.155Z, 8.5
2023-05-06T05:10:00.141Z, 8.7
2023-05-06T05:12:00.110Z, 8.7
2023-05-06T05:14:02.100Z, 8.9
2023-05-06T05:16:00.146Z, 8.8
2023-05-06T05:18:00.223Z, 9
2023-05-06T05:20:00.156Z, 9
2023-05-06T05:22:00.069Z, 9
2023-05-06T05:24:00.068Z, 8.9
2023-05-06T05:26:00.087Z, 8.8
2023-05-06T05:28:00.075Z, 8.9
2023-05-06T05:30:00.087Z, 9.2
2023-05-06T05:32:00.070Z, 9.7
2023-05-06T05:34:00.067Z, 10
2023-05-06T05:36:00.091Z, 10.2
2023-05-06T05:38:00.042Z, 9.8
2023-05-06T05:40:00.062Z, 9.6
2023-05-06T05:42:00.089Z, 9.3
2023-05-06T05:44:00.065Z, 9.3
2023-05-06T05:46:00.085Z, 9.7
2023-05-06T05:48:00.133Z, 9.8
2023-05-06T05:50:00.044Z, 9.9
2023-05-06T05:52:00.162Z, 10.1
2023-05-06T05:54:00.131Z, 10
2023-05-06T05:56:00.146Z, 10
2023-05-06T05:58:00.128Z, 10
2023-05-06T06:00:00.117Z, 10.1
2023-05-06T06:02:00.146Z, 9.9
2023-05-06T06:04:00.372Z, 10.1
2023-05-06T06:06:00.176Z, 10
2023-05-06T06:08:01.596Z, 10
2023-05-06T06:10:00.169Z, 10.2
2023-05-06T06:12:00.109Z, 10.3
2023-05-06T06:14:00.126Z, 10.7
2023-05-06T06:16:00.105Z, 10.7
2023-05-06T06:18:00.173Z, 10.5
2023-05-06T06:20:00.148Z, 10.4
2023-05-06T06:22:00.082Z, 10.1
2023-05-06T06:24:00.147Z, 10
2023-05-06T06:26:00.056Z, 10
2023-05-06T06:28:00.095Z, 10.2
2023-05-06T06:30:00.120Z, 10.2
2023-05-06T06:32:00.157Z, 10.2
2023-05-06T06:34:00.079Z, 10.4
2023-05-06T06:36:00.070Z, 10.3
2023-05-06T06:38:00.044Z, 10.3
2023-05-06T06:40:00.117Z, 10.6
2023-05-06T06:42:00.060Z, 10.7
2023-05-06T06:44:00.068Z, 10.8
2023-05-06T06:46:00.154Z, 10.9
2023-05-06T06:48:00.102Z, 10.8
2023-05-06T06:50:00.040Z, 10.8
2023-05-06T06:52:00.083Z, 10.9
2023-05-06T06:54:00.118Z, 10.7
2023-05-06T06:56:00.129Z, 10.8
2023-05-06T06:58:00.137Z, 10.7
2023-05-06T07:00:00.161Z, 10.6
2023-05-06T07:02:00.113Z, 10.6
2023-05-06T07:04:00.184Z, 10.9
2023-05-06T07:06:00.185Z, 10.9
2023-05-06T07:08:00.123Z, 10.8
2023-05-06T07:10:00.144Z, 10.6
2023-05-06T07:12:00.133Z, 10.8
2023-05-06T07:14:00.105Z, 10.6
2023-05-06T07:16:00.126Z, 10.7
2023-05-06T07:18:00.234Z, 10.9
2023-05-06T07:20:00.206Z, 11.2
2023-05-06T07:22:00.079Z, 11.2
2023-05-06T07:24:00.157Z, 11.3
2023-05-06T07:26:00.124Z, 11.3
2023-05-06T07:28:00.096Z, 11.2
2023-05-06T07:30:00.156Z, 11.2
2023-05-06T07:32:00.069Z, 11.2
2023-05-06T07:34:00.072Z, 11
2023-05-06T07:36:00.063Z, 11
2023-05-06T07:38:00.080Z, 11.1
2023-05-06T07:40:00.129Z, 11.2
2023-05-06T07:42:00.060Z, 11.2
2023-05-06T07:44:00.106Z, 11.4
2023-05-06T07:46:00.118Z, 11.3
2023-05-06T07:48:00.158Z, 11.2
2023-05-06T07:50:00.058Z, 11.1
2023-05-06T07:52:00.098Z, 11.1
2023-05-06T07:54:00.125Z, 11.3
2023-05-06T07:56:00.148Z, 11.1
2023-05-06T07:58:00.134Z, 11.1
2023-05-06T08:00:00.126Z, 10.7
2023-05-06T08:02:00.116Z, 10.6
2023-05-06T08:04:00.212Z, 10.7
2023-05-06T08:06:00.122Z, 10.9
2023-05-06T08:08:00.136Z, 11
2023-05-06T08:10:00.135Z, 11.1
2023-05-06T08:12:00.123Z, 11
2023-05-06T08:14:00.133Z, 10.9
2023-05-06T08:16:00.198Z, 10.9
2023-05-06T08:18:07.051Z, 11
2023-05-06T08:20:00.157Z, 11.1
2023-05-06T08:22:00.110Z, 11.1
2023-05-06T08:24:00.058Z, 11.1
2023-05-06T08:26:00.049Z, 11.2
2023-05-06T08:28:00.038Z, 10.9
2023-05-06T08:30:00.067Z, 10.9
2023-05-06T08:32:00.071Z, 10.5
2023-05-06T08:34:00.058Z, 10.5
2023-05-06T08:36:00.072Z, 10.5
2023-05-06T08:38:00.059Z, 10.6
2023-05-06T08:40:00.206Z, 10.6
2023-05-06T08:42:00.045Z, 10.8
2023-05-06T08:44:00.048Z, 11.1
2023-05-06T08:46:00.141Z, 11.1
2023-05-06T08:48:00.108Z, 10.5
2023-05-06T08:50:00.041Z, 10.6
2023-05-06T08:52:00.121Z, 10.9
2023-05-06T08:54:00.139Z, 10.7
2023-05-06T08:56:00.103Z, 10.9
2023-05-06T08:58:00.115Z, 10.8
2023-05-06T09:00:00.210Z, 10.3
2023-05-06T09:02:00.215Z, 10.5
2023-05-06T09:04:00.164Z, 10.7
2023-05-06T09:06:00.142Z, 10.8
2023-05-06T09:08:00.116Z, 10.8
2023-05-06T09:10:00.181Z, 10.7
2023-05-06T09:12:00.148Z, 10.5
2023-05-06T09:14:00.131Z, 10.9
2023-05-06T09:16:00.128Z, 9.7
2023-05-06T09:18:00.239Z, 9.9
2023-05-06T09:20:00.196Z, 10.2
2023-05-06T09:22:00.064Z, 9.7
2023-05-06T09:24:00.127Z, 9.4
2023-05-06T09:26:00.074Z, 9.6
2023-05-06T09:28:00.048Z, 9.8
2023-05-06T09:30:00.062Z, 10.1
2023-05-06T09:32:00.074Z, 10.5
2023-05-06T09:34:00.047Z, 10.3
2023-05-06T09:36:00.077Z, 9.2
2023-05-06T09:38:00.061Z, 8.7
2023-05-06T09:40:00.080Z, 8.6
2023-05-06T09:42:00.074Z, 8.9
2023-05-06T09:44:00.064Z, 8.6
2023-05-06T09:46:00.119Z, 8.5
2023-05-06T09:48:00.100Z, 8.3
2023-05-06T09:50:00.057Z, 8.3
2023-05-06T09:52:00.152Z, 8.4
2023-05-06T09:54:00.117Z, 8.7
2023-05-06T09:56:00.141Z, 8.8
2023-05-06T09:58:00.148Z, 9.2
2023-05-06T10:00:00.144Z, 9.2
2023-05-06T10:02:00.178Z, 9.5
2023-05-06T10:04:00.259Z, 9.6
2023-05-06T10:06:00.172Z, 9.5
2023-05-06T10:08:00.151Z, 9.6
2023-05-06T10:10:00.158Z, 9.9
2023-05-06T10:12:00.174Z, 9.5
2023-05-06T10:14:00.249Z, 9.9
2023-05-06T10:16:00.272Z, 9.7
2023-05-06T10:18:00.240Z, 9.7
2023-05-06T10:20:00.184Z, 9.5
2023-05-06T10:22:00.072Z, 9.7
2023-05-06T10:24:00.076Z, 9.2
2023-05-06T10:26:00.056Z, 9.1
2023-05-06T10:28:00.047Z, 9.2
2023-05-06T10:30:00.140Z, 9.3
2023-05-06T10:32:00.151Z, 9.4
2023-05-06T10:34:00.051Z, 9
2023-05-06T10:36:00.066Z, 8.8
2023-05-06T10:38:00.043Z, 8.8
2023-05-06T10:40:00.038Z, 9.1
2023-05-06T10:42:00.129Z, 9.2
2023-05-06T10:44:00.161Z, 9.2
2023-05-06T10:46:00.105Z, 9.3
2023-05-06T10:48:00.124Z, 9.3
2023-05-06T10:50:00.056Z, 9.3
2023-05-06T10:52:00.101Z, 9.4
2023-05-06T10:54:00.102Z, 9.2
2023-05-06T10:56:00.095Z, 9.7
2023-05-06T10:58:00.162Z, 9.5
2023-05-06T11:00:00.130Z, 9.2
2023-05-06T11:02:00.188Z, 9.1
2023-05-06T11:04:00.113Z, 9.4
2023-05-06T11:06:00.138Z, 8.8
2023-05-06T11:08:00.121Z, 8.9
2023-05-06T11:10:00.178Z, 8.8
2023-05-06T11:12:00.101Z, 9
2023-05-06T11:14:00.118Z, 8.8
2023-05-06T11:16:00.157Z, 8.7
2023-05-06T11:18:00.183Z, 8.8
2023-05-06T11:20:00.157Z, 8.9
2023-05-06T11:22:00.123Z, 8.9
2023-05-06T11:24:00.068Z, 8.8
2023-05-06T11:26:00.063Z, 8.8
2023-05-06T11:28:00.069Z, 8.9
2023-05-06T11:30:00.118Z, 9.1
2023-05-06T11:32:00.055Z, 9
2023-05-06T11:34:00.077Z, 8.7
2023-05-06T11:36:00.057Z, 8.8
2023-05-06T11:38:00.092Z, 8.9
2023-05-06T11:40:00.062Z, 9.3
2023-05-06T11:42:00.081Z, 9.1
2023-05-06T11:44:00.048Z, 8.9
2023-05-06T11:46:00.063Z, 9.2
2023-05-06T11:48:00.221Z, 9.4
2023-05-06T11:50:00.063Z, 9.1
2023-05-06T11:52:00.108Z, 9.2
2023-05-06T11:54:00.140Z, 9.3
2023-05-06T11:56:00.109Z, 9.3
2023-05-06T11:58:00.127Z, 8.3
2023-05-06T12:00:00.151Z, 8.3
2023-05-06T12:02:00.142Z, 8.5
2023-05-06T12:04:00.254Z, 8.6
2023-05-06T12:06:00.148Z, 8
2023-05-06T12:08:00.141Z, 7.5
2023-05-06T12:10:00.152Z, 8.2
2023-05-06T12:12:00.129Z, 8.2
2023-05-06T12:14:00.127Z, 7.9
2023-05-06T12:16:00.227Z, 8
2023-05-06T12:18:00.177Z, 8.3
2023-05-06T12:20:00.249Z, 8.4
2023-05-06T12:22:00.085Z, 8.3
2023-05-06T12:24:00.232Z, 8
2023-05-06T12:26:00.060Z, 8.1
2023-05-06T12:28:00.035Z, 8.1
2023-05-06T12:30:00.058Z, 8.5
2023-05-06T12:32:00.080Z, 7.9
2023-05-06T12:34:01.253Z, 8.2
2023-05-06T12:36:00.170Z, 8.3
2023-05-06T12:38:00.076Z, 8.1
2023-05-06T12:40:00.047Z, 8
2023-05-06T12:42:00.062Z, 8.1
2023-05-06T12:44:00.041Z, 8
2023-05-06T12:46:00.095Z, 7.7
2023-05-06T12:48:00.143Z, 7.7
2023-05-06T12:50:00.069Z, 8.1
2023-05-06T12:52:00.141Z, 8.3
2023-05-06T12:54:00.162Z, 7.8
2023-05-06T12:56:00.132Z, 8.2
2023-05-06T12:58:00.124Z, 9.1
2023-05-06T13:00:00.136Z, 8.5
2023-05-06T13:02:00.175Z, 8.7
2023-05-06T13:04:00.203Z, 9
2023-05-06T13:06:00.154Z, 9
2023-05-06T13:08:00.128Z, 9.3
2023-05-06T13:10:00.147Z, 9.8
2023-05-06T13:12:00.138Z, 9.8
2023-05-06T13:14:00.140Z, 9.4
2023-05-06T13:16:00.128Z, 9.5
2023-05-06T13:18:00.197Z, 9
2023-05-06T13:20:00.150Z, 9.4
2023-05-06T13:22:00.083Z, 9.8
2023-05-06T13:24:00.109Z, 9.7
2023-05-06T13:26:04.134Z, 9.7
2023-05-06T13:28:00.057Z, 9.8
2023-05-06T13:30:00.113Z, 10.1
2023-05-06T13:32:00.074Z, 9.9
2023-05-06T13:34:00.085Z, 9.9
2023-05-06T13:36:00.118Z, 9.8
2023-05-06T13:38:00.081Z, 9.5
2023-05-06T13:40:00.090Z, 9.8
2023-05-06T13:42:00.069Z, 10.4
2023-05-06T13:44:00.070Z, 9.6
2023-05-06T13:46:00.088Z, 9.4
2023-05-06T13:48:00.135Z, 9.9
2023-05-06T13:50:00.060Z, 9.8
2023-05-06T13:52:00.126Z, 10.4
2023-05-06T13:54:00.131Z, 10.4
2023-05-06T13:56:00.139Z, 10
2023-05-06T13:58:00.151Z, 9.9
2023-05-06T14:00:00.111Z, 10.1
2023-05-06T14:02:00.156Z, 10
2023-05-06T14:04:00.138Z, 10.1
2023-05-06T14:06:00.173Z, 9.7
2023-05-06T14:08:00.154Z, 9.4
2023-05-06T14:10:00.130Z, 9.4
2023-05-06T14:12:00.110Z, 9.6
2023-05-06T14:14:00.167Z, 9.9
2023-05-06T14:16:00.185Z, 9.1
2023-05-06T14:18:00.199Z, 9.5
2023-05-06T14:20:00.199Z, 9.7
2023-05-06T14:22:00.143Z, 9.2
2023-05-06T14:24:00.067Z, 9.1
2023-05-06T14:26:00.097Z, 9.8
2023-05-06T14:28:00.067Z, 9.6
2023-05-06T14:30:00.061Z, 9.4
2023-05-06T14:32:00.109Z, 9.5
2023-05-06T14:34:00.051Z, 10.2
2023-05-06T14:36:00.031Z, 9.9
2023-05-06T14:38:00.048Z, 9.4
2023-05-06T14:40:00.052Z, 9.7
2023-05-06T14:42:00.060Z, 9.5
2023-05-06T14:44:00.085Z, 9.2
2023-05-06T14:46:00.143Z, 9
2023-05-06T14:48:00.218Z, 8.9
2023-05-06T14:50:00.100Z, 9.8
2023-05-06T14:52:00.100Z, 9.7
2023-05-06T14:54:00.171Z, 9.2
2023-05-06T14:56:00.082Z, 9.7
2023-05-06T14:58:00.140Z, 9.6
2023-05-06T15:00:00.227Z, 9.4
2023-05-06T15:02:00.142Z, 10
2023-05-06T15:04:00.135Z, 10
2023-05-06T15:06:00.475Z, 9.7
2023-05-06T15:08:00.128Z, 10.2
2023-05-06T15:10:00.143Z, 9.4
2023-05-06T15:12:00.130Z, 9.2
2023-05-06T15:14:00.098Z, 9.5
2023-05-06T15:16:00.172Z, 9.6
2023-05-06T15:18:00.246Z, 9.5
2023-05-06T15:20:00.231Z, 9.5
2023-05-06T15:22:00.089Z, 9.4
2023-05-06T15:24:00.100Z, 9.4
2023-05-06T15:26:00.075Z, 9.7
2023-05-06T15:28:00.044Z, 9.8
2023-05-06T15:30:00.140Z, 9.8
2023-05-06T15:32:00.117Z, 9.8
2023-05-06T15:34:00.881Z, 9.8
2023-05-06T15:36:00.016Z, 10
2023-05-06T15:38:00.068Z, 10.1
2023-05-06T15:40:00.167Z, 10.2
2023-05-06T15:42:00.070Z, 10.2
2023-05-06T15:44:00.246Z, 10.1
2023-05-06T15:46:00.421Z, 10
2023-05-06T15:48:00.185Z, 10.1
2023-05-06T15:50:00.166Z, 10.4
2023-05-06T15:52:01.205Z, 10.9
2023-05-06T15:54:00.142Z, 10.7
2023-05-06T15:56:12.984Z, 10.5
2023-05-06T15:58:00.914Z, 10.8
2023-05-06T16:00:00.301Z, 10.9
2023-05-06T16:04:00.357Z, 11
2023-05-06T16:06:00.161Z, 11.1
2023-05-06T16:08:00.139Z, 11.3
2023-05-06T16:10:00.162Z, 10.9
2023-05-06T16:12:00.179Z, 10.7
2023-05-06T16:14:00.109Z, 10.8
2023-05-06T16:16:01.378Z, 10.7
2023-05-06T16:18:00.152Z, 10.7
2023-05-06T16:20:00.205Z, 10.8
2023-05-06T16:22:00.112Z, 10.9
2023-05-06T16:24:00.159Z, 10.9
2023-05-06T16:26:00.054Z, 11.2
2023-05-06T16:28:00.059Z, 11.2
2023-05-06T16:30:00.144Z, 10.7
2023-05-06T16:32:00.175Z, 10.9
2023-05-06T16:34:00.051Z, 10.9
2023-05-06T16:36:00.076Z, 11.3
2023-05-06T16:38:00.101Z, 11.2
2023-05-06T16:40:00.109Z, 10.8
2023-05-06T16:42:00.055Z, 10.5
2023-05-06T16:44:00.086Z, 10.4
2023-05-06T16:46:00.073Z, 10.7
2023-05-06T16:48:00.290Z, 11.2
2023-05-06T16:50:00.087Z, 10.9
2023-05-06T16:52:00.122Z, 11.1
2023-05-06T16:54:00.158Z, 11.2
2023-05-06T16:56:00.119Z, 11.3
2023-05-06T16:58:00.129Z, 11.3
2023-05-06T17:00:00.151Z, 11.3
2023-05-06T17:02:00.154Z, 11.4
2023-05-06T17:04:00.131Z, 11.4
2023-05-06T17:06:00.158Z, 11.5
2023-05-06T17:08:00.153Z, 11.5
2023-05-06T17:10:00.148Z, 11.6
2023-05-06T17:12:00.131Z, 11.7
2023-05-06T17:14:00.117Z, 11.7
2023-05-06T17:16:00.164Z, 11.7
2023-05-06T17:18:00.186Z, 11.8
2023-05-06T17:20:00.174Z, 11.8
2023-05-06T17:22:00.134Z, 11.5
2023-05-06T17:24:00.114Z, 11.5
2023-05-06T17:26:00.124Z, 11.3
2023-05-06T17:28:00.096Z, 11.4
2023-05-06T17:30:00.100Z, 11.4
2023-05-06T17:32:00.070Z, 11.5
2023-05-06T17:34:00.060Z, 11.5
2023-05-06T17:36:00.076Z, 11.4
2023-05-06T17:38:00.045Z, 11.5
2023-05-06T17:40:00.043Z, 11.5
2023-05-06T17:42:00.069Z, 11.5
2023-05-06T17:44:00.034Z, 11.6
2023-05-06T17:46:00.101Z, 11.7
2023-05-06T17:48:00.091Z, 11.6
2023-05-06T17:50:00.055Z, 11.7
2023-05-06T17:52:01.582Z, 11.7
2023-05-06T17:54:00.125Z, 11.7
2023-05-06T17:56:00.118Z, 11.8
2023-05-06T17:58:00.112Z, 11.8
2023-05-06T18:00:00.183Z, 11.8
2023-05-06T18:02:00.178Z, 11.9
2023-05-06T18:04:00.346Z, 11.9
2023-05-06T18:06:00.138Z, 11.9
2023-05-06T18:08:00.131Z, 11.9
2023-05-06T18:10:00.129Z, 11.7
2023-05-06T18:12:00.144Z, 11.6
2023-05-06T18:14:00.184Z, 11.6
2023-05-06T18:16:00.169Z, 11.7
2023-05-06T18:18:00.239Z, 11.8
2023-05-06T18:20:00.176Z, 11.4
2023-05-06T18:22:00.086Z, 11.3
2023-05-06T18:24:10.386Z, 11.3
2023-05-06T18:26:00.070Z, 11.4
2023-05-06T18:28:00.071Z, 11.6
2023-05-06T18:30:00.126Z, 11.7
2023-05-06T18:32:00.228Z, 11.8
2023-05-06T18:34:00.075Z, 11.8
2023-05-06T18:36:00.087Z, 11.8
2023-05-06T18:38:00.058Z, 11.8
2023-05-06T18:40:00.050Z, 11.8
2023-05-06T18:42:00.115Z, 11.9
2023-05-06T18:44:00.042Z, 12.1
2023-05-06T18:46:00.068Z, 12.1
2023-05-06T18:48:00.124Z, 12.1
2023-05-06T18:50:00.042Z, 12
2023-05-06T18:52:00.158Z, 11.6
2023-05-06T18:54:00.193Z, 11.5
2023-05-06T18:56:00.131Z, 11.5
2023-05-06T18:58:00.148Z, 11.5
2023-05-06T19:00:00.174Z, 11.5
2023-05-06T19:02:00.204Z, 11.6
2023-05-06T19:04:00.197Z, 11.7
2023-05-06T19:06:00.135Z, 11.9
2023-05-06T19:08:00.140Z, 11.9
2023-05-06T19:10:00.150Z, 12
2023-05-06T19:12:00.191Z, 11.9
2023-05-06T19:14:00.179Z, 11.9
2023-05-06T19:16:00.111Z, 11.9
2023-05-06T19:18:00.182Z, 11.8
2023-05-06T19:20:00.150Z, 11.9
2023-05-06T19:22:00.107Z, 11.9
2023-05-06T19:24:00.121Z, 11.7
2023-05-06T19:26:00.096Z, 11.7
2023-05-06T19:28:00.070Z, 11.7
2023-05-06T19:30:00.069Z, 11.7
2023-05-06T19:32:00.054Z, 11.8
2023-05-06T19:34:00.056Z, 11.8
2023-05-06T19:36:00.176Z, 11.9
2023-05-06T19:38:00.045Z, 12
2023-05-06T19:40:00.051Z, 12.1
2023-05-06T19:42:00.118Z, 12.1
2023-05-06T19:44:00.064Z, 12.2
2023-05-06T19:46:00.142Z, 12.2
2023-05-06T19:48:00.116Z, 12.1
2023-05-06T19:50:00.113Z, 12.1
2023-05-06T19:52:00.187Z, 12.1
2023-05-06T19:54:00.104Z, 12.2
2023-05-06T19:56:00.164Z, 12.2
2023-05-06T19:58:00.163Z, 12.2
2023-05-06T20:00:00.204Z, 12.1
2023-05-06T20:02:00.200Z, 12.1
2023-05-06T20:04:00.310Z, 12.1
2023-05-06T20:06:00.196Z, 12.1
2023-05-06T20:08:00.164Z, 12
2023-05-06T20:10:00.143Z, 12
2023-05-06T20:12:00.126Z, 12
2023-05-06T20:14:00.140Z, 12
2023-05-06T20:16:00.286Z, 12.1
2023-05-06T20:18:00.179Z, 12.1
2023-05-06T20:20:00.882Z, 12.1
2023-05-06T20:22:00.193Z, 12.1
2023-05-06T20:24:00.121Z, 12.1
2023-05-06T20:26:00.107Z, 12.1
2023-05-06T20:28:00.078Z, 12.1
2023-05-06T20:30:00.077Z, 12.2
2023-05-06T20:32:00.094Z, 12.2
2023-05-06T20:34:00.050Z, 12.2
2023-05-06T20:36:00.057Z, 12.2
2023-05-06T20:38:00.044Z, 12.2
2023-05-06T20:40:00.075Z, 12.2
2023-05-06T20:42:00.175Z, 12.2
2023-05-06T20:44:00.087Z, 12.2
2023-05-06T20:46:00.116Z, 12.2
2023-05-06T20:48:00.180Z, 12.2
2023-05-06T20:50:00.091Z, 12.2
2023-05-06T20:52:00.133Z, 12.2
2023-05-06T20:54:01.061Z, 12.2
2023-05-06T20:56:00.112Z, 12.2
2023-05-06T20:58:00.104Z, 12.2
2023-05-06T21:00:00.150Z, 12.2
2023-05-06T21:02:00.158Z, 12.3
2023-05-06T21:04:00.078Z, 12.2
2023-05-06T21:06:00.139Z, 12.3
2023-05-06T21:08:00.127Z, 12.2
2023-05-06T21:10:00.173Z, 12.2
2023-05-06T21:12:00.214Z, 12.2
2023-05-06T21:14:00.124Z, 12.2
2023-05-06T21:16:00.134Z, 12.1
2023-05-06T21:18:00.323Z, 12.1
2023-05-06T21:20:00.128Z, 12.1
2023-05-06T21:22:00.072Z, 12.1
2023-05-06T21:24:00.135Z, 12
2023-05-06T21:26:00.088Z, 12.1
2023-05-06T21:28:00.105Z, 12.2
2023-05-06T21:30:00.054Z, 12.1
2023-05-06T21:32:00.055Z, 12.2
2023-05-06T21:34:00.094Z, 12.2
2023-05-06T21:36:00.049Z, 12.3
2023-05-06T21:38:00.038Z, 12.4
2023-05-06T21:40:00.061Z, 12.4
2023-05-06T21:42:00.110Z, 12.4
2023-05-06T21:44:00.059Z, 12.4
2023-05-06T21:46:00.080Z, 12.5
2023-05-06T21:48:00.131Z, 12.5
2023-05-06T21:50:00.031Z, 12.4
2023-05-06T21:52:00.134Z, 12.4
2023-05-06T21:54:00.135Z, 12.4
2023-05-06T21:56:00.099Z, 12.4
2023-05-06T21:58:00.169Z, 12.4
2023-05-06T22:00:00.165Z, 12.4
2023-05-06T22:02:00.150Z, 12.4
2023-05-06T22:04:00.232Z, 12.3
2023-05-06T22:06:00.135Z, 12.3
2023-05-06T22:08:00.134Z, 12.4
2023-05-06T22:10:00.143Z, 12.3
2023-05-06T22:12:00.117Z, 12.3
2023-05-06T22:14:00.136Z, 12.3
2023-05-06T22:16:00.226Z, 12.3
2023-05-06T22:18:00.208Z, 12.4
2023-05-06T22:20:00.129Z, 12.4
2023-05-06T22:22:00.071Z, 12.4
2023-05-06T22:24:00.169Z, 12.5
2023-05-06T22:26:00.472Z, 12.5
2023-05-06T22:28:00.053Z, 12.3
2023-05-06T22:30:00.078Z, 12.4
2023-05-06T22:32:00.187Z, 12.4
2023-05-06T22:34:00.038Z, 12.2
2023-05-06T22:36:00.041Z, 12.3
2023-05-06T22:38:00.018Z, 12.4
2023-05-06T22:40:00.055Z, 12.2
2023-05-06T22:42:00.048Z, 12.2
2023-05-06T22:44:00.049Z, 12.3
2023-05-06T22:46:00.089Z, 12.4
2023-05-06T22:48:00.141Z, 12.4
2023-05-06T22:50:00.041Z, 12.4
2023-05-06T22:52:00.122Z, 12.4
2023-05-06T22:54:00.149Z, 12.4
2023-05-06T22:56:00.153Z, 12.4
2023-05-06T22:58:00.124Z, 12.3
2023-05-06T23:00:00.159Z, 12.3
2023-05-06T23:02:00.211Z, 12.3
2023-05-06T23:04:00.232Z, 12.3
2023-05-06T23:06:00.157Z, 12.4
2023-05-06T23:08:00.116Z, 12.5
2023-05-06T23:10:00.142Z, 12.6
2023-05-06T23:12:00.143Z, 12.6
2023-05-06T23:14:00.141Z, 12.6
2023-05-06T23:16:00.125Z, 12.6
2023-05-06T23:18:00.254Z, 12.7
2023-05-06T23:20:00.197Z, 12.6
2023-05-06T23:22:00.108Z, 12.5
2023-05-06T23:24:00.080Z, 12.5
2023-05-06T23:26:00.061Z, 12.6
2023-05-06T23:28:00.057Z, 12.6
2023-05-06T23:30:00.086Z, 12.6
2023-05-06T23:32:00.068Z, 12.6
2023-05-06T23:34:00.059Z, 12.5
2023-05-06T23:36:00.054Z, 12.6
2023-05-06T23:38:00.065Z, 12.6
2023-05-06T23:40:00.044Z, 12.5
2023-05-06T23:42:00.050Z, 12.5
2023-05-06T23:44:00.042Z, 12.5
2023-05-06T23:46:00.069Z, 12.5
2023-05-06T23:48:00.046Z, 12.5
2023-05-06T23:50:00.032Z, 12.6
2023-05-06T23:52:00.123Z, 12.6
2023-05-06T23:54:00.103Z, 12.6
2023-05-06T23:56:00.136Z, 12.6
2023-05-06T23:58:00.150Z, 12.6
